createdAt,value
2018-02-11T00:48:51.441Z,32.97
2018-02-11T00:51:21.720Z,36.87
2018-02-11T00:53:51.562Z,35.93
2018-02-11T00:56:21.461Z,36.10
2018-02-11T00:58:51.307Z,35.43
2018-02-11T01:01:21.585Z,37.73
2018-02-11T01:50:15.529Z,37.10
2018-02-11T01:52:46.124Z,39.27
2018-02-11T05:06:19.002Z,20.57
2018-02-11T05:33:25.430Z,16.20
2018-02-11T07:21:45.331Z,16.60
2018-02-11T08:55:37.240Z,11.97
2018-02-11T08:58:07.445Z,10.37
2018-02-11T09:00:37.305Z,11.80
2018-02-11T09:03:07.409Z,12.70
2018-02-11T09:05:37.256Z,11.67
2018-02-11T09:08:07.523Z,12.67
2018-02-11T09:10:37.500Z,11.00
2018-02-11T09:13:08.653Z,10.50
2018-02-11T09:15:38.744Z,12.00
2018-02-11T09:18:08.762Z,12.30
2018-02-11T10:43:48.939Z,8.43
2018-02-11T10:46:19.161Z,8.87
2018-02-11T10:48:49.178Z,7.10
2018-02-11T10:51:19.142Z,8.20
2018-02-11T10:56:56.118Z,8.10
2018-02-11T10:59:27.088Z,7.40
2018-02-11T11:01:57.060Z,7.67
2018-02-11T11:04:27.774Z,8.50
2018-02-11T11:19:05.982Z,8.57
2018-02-11T11:21:52.003Z,9.50
2018-02-11T11:24:22.751Z,10.10
2018-02-11T13:15:01.438Z,8.23
2018-02-11T13:17:31.316Z,7.60
2018-02-11T13:20:01.176Z,8.30
2018-02-11T13:22:31.580Z,6.80
2018-02-11T13:25:01.471Z,7.63
2018-02-11T13:27:32.119Z,6.23
2018-02-11T13:30:02.071Z,8.07
2018-02-11T13:32:31.923Z,8.30
2018-02-11T13:35:01.939Z,7.50
2018-02-11T13:37:31.789Z,7.00
2018-02-11T13:40:01.771Z,7.20
2018-02-11T13:42:31.642Z,7.40
2018-02-11T13:45:01.536Z,7.50
2018-02-11T13:47:31.403Z,7.40
2018-02-11T13:50:01.264Z,6.83
2018-02-11T13:52:31.106Z,7.00
2018-02-11T13:55:00.993Z,7.50
2018-02-11T13:57:30.857Z,6.90
2018-02-11T14:00:00.731Z,6.77
2018-02-11T14:02:30.577Z,6.87
2018-02-11T14:05:00.450Z,5.87
2018-02-11T14:07:30.331Z,5.80
2018-02-11T14:10:00.164Z,5.33
2018-02-11T14:12:30.466Z,6.17
2018-02-11T14:15:00.313Z,6.73
2018-02-11T14:17:30.473Z,8.00
2018-02-11T14:20:00.353Z,6.37
2018-02-11T14:22:30.259Z,4.87
2018-02-11T14:25:00.162Z,5.53
2018-02-11T14:32:28.376Z,6.63
2018-02-11T14:34:58.498Z,6.87
2018-02-11T14:37:28.395Z,5.43
2018-02-11T14:39:58.774Z,6.43
2018-02-11T14:42:29.225Z,5.67
2018-02-11T14:45:01.242Z,5.73
2018-02-11T14:47:35.535Z,5.03
2018-02-11T14:50:07.529Z,5.17
2018-02-11T14:55:35.165Z,6.70
2018-02-11T14:58:11.838Z,6.67
2018-02-11T15:00:43.188Z,5.90
2018-02-11T15:03:33.354Z,6.43
2018-02-11T15:06:08.826Z,6.80
2018-02-11T15:08:42.704Z,6.73
2018-02-11T15:11:29.238Z,6.20
2018-02-11T15:14:01.770Z,6.20
2018-02-11T15:16:37.783Z,6.60
2018-02-11T15:31:54.766Z,5.57
2018-02-11T15:34:26.497Z,4.93
2018-02-11T15:36:56.641Z,4.30
2018-02-11T15:39:26.617Z,3.63
2018-02-11T15:41:57.882Z,2.40
2018-02-11T15:44:28.001Z,4.47
2018-02-11T15:46:57.966Z,3.63
2018-02-11T15:49:28.793Z,3.10
2018-02-11T15:51:58.756Z,3.47
2018-02-11T15:54:28.806Z,3.80
2018-02-11T15:56:58.777Z,3.50
2018-02-11T15:59:29.026Z,3.17
2018-02-11T16:01:59.039Z,4.03
2018-02-11T16:19:01.196Z,4.07
2018-02-11T16:21:31.228Z,3.80
2018-02-11T16:24:01.148Z,4.00
2018-02-11T16:26:31.482Z,3.67
2018-02-11T16:29:04.813Z,3.33
2018-02-11T16:31:54.348Z,4.10
2018-02-11T16:34:24.576Z,2.63
2018-02-11T16:36:54.814Z,3.30
2018-02-11T16:39:25.277Z,3.17
2018-02-11T16:41:55.608Z,2.83
2018-02-11T16:44:25.538Z,2.77
2018-02-11T16:46:55.578Z,2.20
2018-02-11T16:49:25.458Z,2.43
2018-02-11T16:51:55.814Z,3.13
2018-02-11T16:54:26.257Z,4.07
2018-02-11T16:56:56.389Z,2.57
2018-02-11T16:59:26.452Z,2.53
2018-02-11T17:01:56.782Z,3.70
2018-02-11T17:04:26.857Z,2.60
2018-02-11T17:06:56.822Z,2.47
2018-02-11T17:09:26.792Z,2.40
2018-02-11T17:11:57.176Z,2.80
2018-02-11T17:14:27.052Z,2.37
2018-02-11T17:16:57.242Z,2.97
2018-02-11T17:19:27.141Z,2.20
2018-02-11T17:21:57.377Z,3.60
2018-02-11T17:24:27.236Z,2.50
2018-02-11T17:26:57.425Z,2.80
2018-02-11T17:29:27.359Z,3.00
2018-02-11T17:31:58.060Z,2.33
2018-02-11T17:34:28.645Z,2.43
2018-02-11T17:36:59.010Z,3.57
2018-02-11T17:39:28.862Z,2.77
2018-02-11T17:41:58.720Z,3.70
2018-02-11T17:44:28.589Z,4.40
2018-02-11T17:46:58.467Z,2.07
2018-02-11T17:49:28.707Z,2.63
2018-02-11T17:51:58.557Z,3.73
2018-02-11T17:54:28.800Z,3.40
2018-02-11T17:56:58.668Z,3.70
2018-02-11T17:59:28.841Z,2.70
2018-02-11T18:01:58.700Z,2.13
2018-02-11T18:04:28.614Z,2.57
2018-02-11T18:06:59.100Z,2.73
2018-02-11T18:09:29.020Z,2.43
2018-02-11T18:12:00.306Z,2.80
2018-02-11T18:14:30.255Z,3.40
2018-02-11T18:17:00.481Z,3.80
2018-02-11T18:19:30.327Z,3.70
2018-02-11T18:22:00.680Z,4.00
2018-02-11T18:24:30.589Z,3.93
2018-02-11T18:27:00.885Z,2.90
2018-02-11T18:29:30.786Z,3.97
2018-02-11T18:32:01.525Z,2.30
2018-02-11T18:34:31.376Z,3.67
2018-02-11T18:37:01.723Z,3.37
2018-02-11T18:39:31.553Z,2.93
2018-02-11T18:42:02.418Z,3.40
2018-02-11T18:44:32.291Z,2.90
2018-02-11T18:47:02.525Z,3.70
2018-02-11T18:49:32.396Z,2.43
2018-02-11T18:52:02.682Z,2.03
2018-02-11T18:54:32.581Z,2.50
2018-02-11T18:57:02.812Z,3.00
2018-02-11T18:59:32.736Z,3.77
2018-02-11T19:02:02.964Z,2.37
2018-02-11T19:04:32.921Z,3.47
2018-02-11T19:07:02.969Z,2.80
2018-02-11T19:09:32.841Z,2.80
2018-02-11T19:12:02.790Z,2.27
2018-02-11T19:14:32.970Z,2.87
2018-02-11T19:17:02.928Z,2.80
2018-02-11T19:19:32.808Z,3.10
2018-02-11T19:22:02.676Z,3.90
2018-02-11T19:24:32.669Z,2.40
2018-02-11T19:27:02.998Z,2.57
2018-02-11T19:29:32.874Z,3.23
2018-02-11T19:32:03.266Z,4.10
2018-02-11T19:34:33.128Z,3.00
2018-02-11T19:37:03.568Z,3.50
2018-02-11T19:39:33.553Z,3.43
2018-02-11T19:42:03.887Z,2.63
2018-02-11T19:44:33.829Z,3.27
2018-02-11T19:47:04.067Z,3.17
2018-02-11T19:49:34.071Z,3.97
2018-02-11T19:52:04.393Z,3.13
2018-02-11T19:54:34.444Z,2.50
2018-02-11T19:57:04.856Z,3.30
2018-02-11T19:59:35.481Z,3.27
2018-02-11T20:02:05.790Z,1.63
2018-02-11T20:04:35.632Z,2.80
2018-02-11T20:07:05.876Z,3.40
2018-02-11T20:09:35.970Z,3.03
2018-02-11T20:12:06.404Z,3.00
2018-02-11T20:14:36.314Z,3.80
2018-02-11T20:17:06.514Z,3.50
2018-02-11T20:19:36.474Z,3.27
2018-02-11T20:22:06.781Z,3.80
2018-02-11T20:24:36.671Z,3.30
2018-02-11T20:27:06.970Z,3.20
2018-02-11T20:29:36.889Z,3.27
2018-02-11T20:32:07.325Z,4.10
2018-02-11T20:34:37.262Z,3.30
2018-02-11T20:37:07.664Z,3.23
2018-02-11T20:39:37.750Z,3.63
2018-02-11T20:42:08.018Z,3.47
2018-02-11T20:44:37.944Z,3.27
2018-02-11T20:47:08.361Z,4.63
2018-02-11T20:49:38.241Z,3.23
2018-02-11T20:52:08.455Z,3.10
2018-02-11T20:54:39.216Z,4.53
2018-02-11T20:57:09.452Z,3.70
2018-02-11T20:59:39.562Z,3.87
2018-02-11T21:02:09.781Z,3.30
2018-02-11T21:04:39.661Z,3.07
2018-02-11T21:07:10.019Z,3.10
2018-02-11T21:09:39.881Z,3.47
2018-02-11T21:12:09.739Z,4.33
2018-02-11T21:14:39.666Z,3.97
2018-02-11T21:17:09.550Z,3.60
2018-02-11T21:19:39.806Z,4.27
2018-02-11T21:22:09.632Z,4.03
2018-02-11T21:24:39.934Z,5.20
2018-02-11T21:27:09.944Z,2.27
2018-02-11T21:29:40.196Z,2.90
2018-02-11T21:32:10.091Z,2.73
2018-02-11T21:34:40.344Z,3.53
2018-02-11T21:37:10.349Z,4.00
2018-02-11T21:39:40.817Z,3.20
2018-02-11T21:42:10.797Z,3.93
2018-02-11T21:44:41.122Z,3.40
2018-02-11T21:47:11.161Z,3.43
2018-02-11T21:49:41.452Z,3.50
2018-02-11T21:52:11.557Z,4.63
2018-02-11T21:54:41.897Z,2.43
2018-02-11T21:57:11.828Z,2.77
2018-02-11T21:59:42.296Z,4.17
2018-02-11T22:02:12.205Z,2.70
2018-02-11T22:04:42.566Z,2.10
2018-02-11T22:07:12.575Z,4.37
2018-02-11T22:09:42.865Z,3.20
2018-02-11T22:12:12.840Z,4.10
2018-02-11T22:14:43.402Z,4.90
2018-02-11T22:17:13.273Z,2.83
2018-02-11T22:19:43.987Z,4.50
2018-02-11T22:22:14.004Z,4.00
2018-02-11T22:24:44.919Z,2.03
2018-02-11T22:27:14.799Z,3.17
2018-02-11T22:29:45.144Z,3.60
2018-02-11T22:32:15.015Z,3.53
2018-02-11T22:34:45.375Z,3.67
2018-02-11T22:37:15.236Z,2.67
2018-02-11T22:39:45.564Z,3.17
2018-02-11T22:42:15.430Z,3.33
2018-02-11T22:44:45.650Z,3.00
2018-02-11T22:47:15.571Z,3.00
2018-02-11T22:49:45.799Z,3.60
2018-02-11T22:52:15.656Z,3.27
2018-02-11T22:54:45.872Z,3.87
2018-02-11T22:57:15.765Z,3.20
2018-02-11T22:59:47.661Z,3.20
2018-02-11T23:02:18.397Z,3.90
2018-02-11T23:04:49.664Z,3.70
2018-02-11T23:07:20.478Z,3.60
2018-02-11T23:09:51.359Z,2.70
2018-02-11T23:12:22.490Z,2.97
2018-02-11T23:14:53.094Z,3.13
2018-02-11T23:17:24.206Z,3.60
2018-02-11T23:19:54.915Z,4.73
2018-02-11T23:22:25.191Z,2.60
2018-02-11T23:24:56.346Z,2.97
2018-02-11T23:27:26.361Z,3.90
2018-02-11T23:29:57.031Z,4.03
2018-02-11T23:32:26.986Z,3.83
2018-02-11T23:34:57.374Z,3.07
2018-02-11T23:37:28.662Z,3.80
2018-02-11T23:40:00.110Z,3.40
2018-02-11T23:42:30.166Z,3.97
2018-02-11T23:45:00.761Z,4.10
2018-02-11T23:47:30.961Z,2.70
2018-02-11T23:50:02.551Z,2.07
2018-02-11T23:52:33.065Z,4.50
2018-02-11T23:55:06.302Z,3.07
2018-02-11T23:57:36.385Z,3.57
